sensor_id;sensor_type;location;lat;lon;timestamp;P1;durP1;ratioP1;P2;durP2;ratioP2
6392;SDS011;3229;42.674;23.282;2024-01-15T00:00:58;46.50;;;25.73;;
6392;SDS011;3229;42.674;23.282;2024-01-15T00:03:26;48.47;;;26.73;;
6392;SDS011;3229;42.674;23.282;2024-01-15T00:05:53;45.80;;;25.00;;
6392;SDS011;3229;42.674;23.282;2024-01-15T00:08:20;41.90;;;24.50;;
6392;SDS011;3229;42.674;23.282;2024-01-15T00:10:46;46.87;;;24.90;;
6392;SDS011;3229;42.674;23.282;2024-01-15T00:13:13;42.03;;;25.83;;
6392;SDS011;3229;42.674;23.282;2024-01-15T00:15:40;45.70;;;24.43;;
6392;SDS011;3229;42.674;23.282;2024-01-15T00:18:07;44.07;;;25.13;;
6392;SDS011;3229;42.674;23.282;2024-01-15T00:20:35;43.87;;;23.90;;
6392;SDS011;3229;42.674;23.282;2024-01-15T00:23:02;48.50;;;25.37;;
6392;SDS011;3229;42.674;23.282;2024-01-15T00:25:30;40.73;;;24.57;;
6392;SDS011;3229;42.674;23.282;2024-01-15T00:27:56;41.33;;;23.57;;
6392;SDS011;3229;42.674;23.282;2024-01-15T00:30:23;42.77;;;25.43;;
6392;SDS011;3229;42.674;23.282;2024-01-15T00:32:50;41.87;;;25.03;;
6392;SDS011;3229;42.674;23.282;2024-01-15T00:35:17;42.60;;;24.50;;
6392;SDS011;3229;42.674;23.282;2024-01-15T00:37:45;44.07;;;24.97;;
6392;SDS011;3229;42.674;23.282;2024-01-15T00:40:12;44.70;;;25.47;;
6392;SDS011;3229;42.674;23.282;2024-01-15T00:42:38;41.50;;;23.77;;
6392;SDS011;3229;42.674;23.282;2024-01-15T00:45:05;36.60;;;23.60;;
6392;SDS011;3229;42.674;23.282;2024-01-15T00:47:33;40.83;;;24.00;;
6392;SDS011;3229;42.674;23.282;2024-01-15T00:50:00;45.47;;;25.37;;
6392;SDS011;3229;42.674;23.282;2024-01-15T00:52:28;47.73;;;26.03;;
6392;SDS011;3229;42.674;23.282;2024-01-15T00:54:56;40.90;;;25.10;;
6392;SDS011;3229;42.674;23.282;2024-01-15T00:57:23;43.63;;;25.73;;
6392;SDS011;3229;42.674;23.282;2024-01-15T00:59:49;43.47;;;25.23;;
6392;SDS011;3229;42.674;23.282;2024-01-15T01:02:16;43.97;;;25.73;;
6392;SDS011;3229;42.674;23.282;2024-01-15T01:04:43;47.30;;;25.37;;
6392;SDS011;3229;42.674;23.282;2024-01-15T01:07:10;45.77;;;25.67;;
6392;SDS011;3229;42.674;23.282;2024-01-15T01:09:36;42.53;;;25.00;;
6392;SDS011;3229;42.674;23.282;2024-01-15T01:12:05;43.07;;;25.40;;
6392;SDS011;3229;42.674;23.282;2024-01-15T01:14:32;43.13;;;24.63;;
6392;SDS011;3229;42.674;23.282;2024-01-15T01:16:59;46.53;;;25.40;;
6392;SDS011;3229;42.674;23.282;2024-01-15T01:19:26;44.40;;;24.80;;
6392;SDS011;3229;42.674;23.282;2024-01-15T01:21:52;41.90;;;25.67;;
6392;SDS011;3229;42.674;23.282;2024-01-15T01:24:19;45.50;;;25.30;;
6392;SDS011;3229;42.674;23.282;2024-01-15T01:26:46;41.87;;;24.77;;
6392;SDS011;3229;42.674;23.282;2024-01-15T01:29:14;40.53;;;23.93;;
6392;SDS011;3229;42.674;23.282;2024-01-15T01:31:44;42.13;;;23.97;;
6392;SDS011;3229;42.674;23.282;2024-01-15T01:34:13;42.60;;;23.50;;
6392;SDS011;3229;42.674;23.282;2024-01-15T01:36:40;40.57;;;23.93;;
6392;SDS011;3229;42.674;23.282;2024-01-15T01:39:07;44.73;;;24.40;;
6392;SDS011;3229;42.674;23.282;2024-01-15T01:41:34;40.57;;;23.53;;
6392;SDS011;3229;42.674;23.282;2024-01-15T01:44:01;42.03;;;23.07;;
6392;SDS011;3229;42.674;23.282;2024-01-15T01:46:29;39.93;;;23.17;;
6392;SDS011;3229;42.674;23.282;2024-01-15T01:48:56;41.43;;;23.63;;
6392;SDS011;3229;42.674;23.282;2024-01-15T01:51:28;42.03;;;23.43;;
6392;SDS011;3229;42.674;23.282;2024-01-15T01:53:55;43.57;;;23.90;;
6392;SDS011;3229;42.674;23.282;2024-01-15T01:56:22;39.73;;;23.43;;
6392;SDS011;3229;42.674;23.282;2024-01-15T01:58:50;38.43;;;22.60;;
6392;SDS011;3229;42.674;23.282;2024-01-15T02:01:17;41.43;;;22.73;;
6392;SDS011;3229;42.674;23.282;2024-01-15T02:03:46;36.27;;;22.30;;
6392;SDS011;3229;42.674;23.282;2024-01-15T02:06:13;37.47;;;21.17;;
6392;SDS011;3229;42.674;23.282;2024-01-15T02:08:41;38.17;;;21.20;;
6392;SDS011;3229;42.674;23.282;2024-01-15T02:11:10;39.03;;;21.80;;
6392;SDS011;3229;42.674;23.282;2024-01-15T02:13:36;41.87;;;21.77;;
6392;SDS011;3229;42.674;23.282;2024-01-15T02:16:05;34.33;;;20.50;;
6392;SDS011;3229;42.674;23.282;2024-01-15T02:18:39;43.60;;;21.70;;
6392;SDS011;3229;42.674;23.282;2024-01-15T02:21:08;38.20;;;21.97;;
6392;SDS011;3229;42.674;23.282;2024-01-15T02:23:36;38.20;;;20.93;;
6392;SDS011;3229;42.674;23.282;2024-01-15T02:26:03;29.57;;;19.77;;
6392;SDS011;3229;42.674;23.282;2024-01-15T02:28:31;33.83;;;20.00;;
6392;SDS011;3229;42.674;23.282;2024-01-15T02:30:59;38.33;;;21.30;;
6392;SDS011;3229;42.674;23.282;2024-01-15T02:33:26;33.07;;;20.17;;
6392;SDS011;3229;42.674;23.282;2024-01-15T02:35:53;33.73;;;19.97;;
6392;SDS011;3229;42.674;23.282;2024-01-15T02:38:20;30.37;;;17.90;;
6392;SDS011;3229;42.674;23.282;2024-01-15T02:40:49;34.70;;;19.47;;
6392;SDS011;3229;42.674;23.282;2024-01-15T02:43:16;32.03;;;18.33;;
6392;SDS011;3229;42.674;23.282;2024-01-15T02:45:44;35.40;;;19.47;;
6392;SDS011;3229;42.674;23.282;2024-01-15T02:48:11;31.87;;;19.10;;
6392;SDS011;3229;42.674;23.282;2024-01-15T02:50:37;40.37;;;19.63;;
6392;SDS011;3229;42.674;23.282;2024-01-15T02:53:05;37.33;;;18.67;;
6392;SDS011;3229;42.674;23.282;2024-01-15T02:55:32;26.90;;;17.43;;
6392;SDS011;3229;42.674;23.282;2024-01-15T02:58:00;27.37;;;18.47;;
6392;SDS011;3229;42.674;23.282;2024-01-15T03:00:27;32.23;;;18.10;;
6392;SDS011;3229;42.674;23.282;2024-01-15T03:02:54;31.30;;;18.40;;
6392;SDS011;3229;42.674;23.282;2024-01-15T03:05:21;34.07;;;20.23;;
6392;SDS011;3229;42.674;23.282;2024-01-15T03:07:48;34.50;;;19.53;;
6392;SDS011;3229;42.674;23.282;2024-01-15T03:10:14;37.23;;;19.80;;
6392;SDS011;3229;42.674;23.282;2024-01-15T03:12:41;34.47;;;18.07;;
6392;SDS011;3229;42.674;23.282;2024-01-15T03:15:09;26.07;;;17.50;;
6392;SDS011;3229;42.674;23.282;2024-01-15T03:17:36;30.30;;;17.83;;
6392;SDS011;3229;42.674;23.282;2024-01-15T03:20:03;27.63;;;17.40;;
6392;SDS011;3229;42.674;23.282;2024-01-15T03:22:31;28.97;;;17.93;;
6392;SDS011;3229;42.674;23.282;2024-01-15T03:24:58;30.53;;;17.47;;
6392;SDS011;3229;42.674;23.282;2024-01-15T03:27:24;29.97;;;17.67;;
6392;SDS011;3229;42.674;23.282;2024-01-15T03:29:52;34.77;;;18.63;;
6392;SDS011;3229;42.674;23.282;2024-01-15T03:32:20;29.73;;;18.17;;
6392;SDS011;3229;42.674;23.282;2024-01-15T03:34:46;32.13;;;18.57;;
6392;SDS011;3229;42.674;23.282;2024-01-15T03:37:13;29.53;;;18.13;;
6392;SDS011;3229;42.674;23.282;2024-01-15T03:39:40;32.57;;;18.17;;
6392;SDS011;3229;42.674;23.282;2024-01-15T03:42:07;28.57;;;18.63;;
6392;SDS011;3229;42.674;23.282;2024-01-15T03:44:34;34.40;;;18.00;;
6392;SDS011;3229;42.674;23.282;2024-01-15T03:47:00;29.57;;;18.40;;
6392;SDS011;3229;42.674;23.282;2024-01-15T03:49:29;31.53;;;18.93;;
6392;SDS011;3229;42.674;23.282;2024-01-15T03:51:55;29.37;;;17.50;;
6392;SDS011;3229;42.674;23.282;2024-01-15T03:54:22;29.63;;;17.90;;
6392;SDS011;3229;42.674;23.282;2024-01-15T03:56:49;34.80;;;19.33;;
6392;SDS011;3229;42.674;23.282;2024-01-15T03:59:16;35.07;;;19.00;;
6392;SDS011;3229;42.674;23.282;2024-01-15T04:01:47;32.73;;;19.20;;
6392;SDS011;3229;42.674;23.282;2024-01-15T04:04:15;33.23;;;19.90;;
6392;SDS011;3229;42.674;23.282;2024-01-15T04:06:43;33.67;;;20.43;;
6392;SDS011;3229;42.674;23.282;2024-01-15T04:09:09;36.67;;;20.87;;
6392;SDS011;3229;42.674;23.282;2024-01-15T04:11:38;35.73;;;21.03;;
6392;SDS011;3229;42.674;23.282;2024-01-15T04:14:05;40.80;;;23.30;;
6392;SDS011;3229;42.674;23.282;2024-01-15T04:16:31;39.37;;;23.30;;
6392;SDS011;3229;42.674;23.282;2024-01-15T04:19:00;39.87;;;22.87;;
6392;SDS011;3229;42.674;23.282;2024-01-15T04:21:26;43.20;;;23.30;;
6392;SDS011;3229;42.674;23.282;2024-01-15T04:23:54;42.70;;;26.03;;
6392;SDS011;3229;42.674;23.282;2024-01-15T04:26:21;44.73;;;25.60;;
6392;SDS011;3229;42.674;23.282;2024-01-15T04:28:48;48.37;;;26.37;;
6392;SDS011;3229;42.674;23.282;2024-01-15T04:31:22;48.60;;;26.73;;
6392;SDS011;3229;42.674;23.282;2024-01-15T04:33:49;51.80;;;29.33;;
6392;SDS011;3229;42.674;23.282;2024-01-15T04:36:16;60.37;;;31.00;;
6392;SDS011;3229;42.674;23.282;2024-01-15T04:38:43;52.37;;;31.57;;
6392;SDS011;3229;42.674;23.282;2024-01-15T04:41:12;52.47;;;31.77;;
6392;SDS011;3229;42.674;23.282;2024-01-15T04:43:39;60.07;;;33.33;;
6392;SDS011;3229;42.674;23.282;2024-01-15T04:46:06;57.73;;;33.17;;
6392;SDS011;3229;42.674;23.282;2024-01-15T04:48:33;55.63;;;32.27;;
6392;SDS011;3229;42.674;23.282;2024-01-15T04:51:00;58.33;;;33.53;;
6392;SDS011;3229;42.674;23.282;2024-01-15T04:53:29;56.27;;;32.90;;
6392;SDS011;3229;42.674;23.282;2024-01-15T04:55:56;66.93;;;35.20;;
6392;SDS011;3229;42.674;23.282;2024-01-15T04:58:24;61.90;;;35.03;;
6392;SDS011;3229;42.674;23.282;2024-01-15T05:00:52;62.13;;;35.70;;
6392;SDS011;3229;42.674;23.282;2024-01-15T05:03:19;68.13;;;36.60;;
6392;SDS011;3229;42.674;23.282;2024-01-15T05:05:46;69.07;;;35.90;;
6392;SDS011;3229;42.674;23.282;2024-01-15T05:08:13;65.47;;;36.03;;
6392;SDS011;3229;42.674;23.282;2024-01-15T05:10:40;65.27;;;36.97;;
6392;SDS011;3229;42.674;23.282;2024-01-15T05:13:06;72.73;;;37.37;;
6392;SDS011;3229;42.674;23.282;2024-01-15T05:15:34;64.33;;;36.03;;
6392;SDS011;3229;42.674;23.282;2024-01-15T05:18:01;68.03;;;36.67;;
6392;SDS011;3229;42.674;23.282;2024-01-15T05:20:28;75.87;;;39.27;;
6392;SDS011;3229;42.674;23.282;2024-01-15T05:22:55;77.17;;;40.50;;
6392;SDS011;3229;42.674;23.282;2024-01-15T05:25:22;72.33;;;40.63;;
6392;SDS011;3229;42.674;23.282;2024-01-15T05:27:49;72.77;;;39.87;;
6392;SDS011;3229;42.674;23.282;2024-01-15T05:30:15;71.17;;;39.53;;
6392;SDS011;3229;42.674;23.282;2024-01-15T05:32:44;71.57;;;40.53;;
6392;SDS011;3229;42.674;23.282;2024-01-15T05:35:10;77.07;;;41.77;;
6392;SDS011;3229;42.674;23.282;2024-01-15T05:37:38;73.03;;;43.17;;
6392;SDS011;3229;42.674;23.282;2024-01-15T05:40:08;71.07;;;41.73;;
6392;SDS011;3229;42.674;23.282;2024-01-15T05:42:35;76.33;;;43.43;;
6392;SDS011;3229;42.674;23.282;2024-01-15T05:45:02;73.97;;;42.93;;
6392;SDS011;3229;42.674;23.282;2024-01-15T05:47:30;84.53;;;45.07;;
6392;SDS011;3229;42.674;23.282;2024-01-15T05:50:00;83.17;;;43.23;;
6392;SDS011;3229;42.674;23.282;2024-01-15T05:52:27;71.63;;;41.53;;
6392;SDS011;3229;42.674;23.282;2024-01-15T05:54:54;80.93;;;42.53;;
6392;SDS011;3229;42.674;23.282;2024-01-15T05:57:21;74.67;;;43.27;;
6392;SDS011;3229;42.674;23.282;2024-01-15T05:59:47;63.57;;;37.80;;
6392;SDS011;3229;42.674;23.282;2024-01-15T06:02:14;41.77;;;26.27;;
6392;SDS011;3229;42.674;23.282;2024-01-15T06:04:41;54.47;;;32.53;;
6392;SDS011;3229;42.674;23.282;2024-01-15T06:07:09;60.47;;;35.73;;
6392;SDS011;3229;42.674;23.282;2024-01-15T06:09:36;57.37;;;34.60;;
6392;SDS011;3229;42.674;23.282;2024-01-15T06:12:03;64.40;;;35.53;;
6392;SDS011;3229;42.674;23.282;2024-01-15T06:14:31;65.30;;;37.57;;
6392;SDS011;3229;42.674;23.282;2024-01-15T06:16:57;58.87;;;35.13;;
6392;SDS011;3229;42.674;23.282;2024-01-15T06:19:24;67.50;;;36.70;;
6392;SDS011;3229;42.674;23.282;2024-01-15T06:21:51;67.13;;;36.83;;
6392;SDS011;3229;42.674;23.282;2024-01-15T06:24:19;59.67;;;36.20;;
6392;SDS011;3229;42.674;23.282;2024-01-15T06:26:46;65.27;;;37.57;;
6392;SDS011;3229;42.674;23.282;2024-01-15T06:29:13;58.67;;;35.73;;
6392;SDS011;3229;42.674;23.282;2024-01-15T06:31:40;64.53;;;36.93;;
6392;SDS011;3229;42.674;23.282;2024-01-15T06:34:07;61.20;;;37.47;;
6392;SDS011;3229;42.674;23.282;2024-01-15T06:36:33;63.00;;;37.57;;
6392;SDS011;3229;42.674;23.282;2024-01-15T06:39:00;66.90;;;39.30;;
6392;SDS011;3229;42.674;23.282;2024-01-15T06:41:29;64.33;;;38.43;;
6392;SDS011;3229;42.674;23.282;2024-01-15T06:44:00;62.53;;;36.40;;
6392;SDS011;3229;42.674;23.282;2024-01-15T06:46:27;64.50;;;38.93;;
6392;SDS011;3229;42.674;23.282;2024-01-15T06:48:54;67.03;;;38.20;;
6392;SDS011;3229;42.674;23.282;2024-01-15T06:51:21;58.57;;;36.40;;
6392;SDS011;3229;42.674;23.282;2024-01-15T06:53:47;63.17;;;38.53;;
6392;SDS011;3229;42.674;23.282;2024-01-15T06:56:14;61.50;;;38.03;;
6392;SDS011;3229;42.674;23.282;2024-01-15T06:58:42;66.47;;;38.63;;
6392;SDS011;3229;42.674;23.282;2024-01-15T07:01:09;69.30;;;40.03;;
6392;SDS011;3229;42.674;23.282;2024-01-15T07:03:36;62.93;;;38.30;;
6392;SDS011;3229;42.674;23.282;2024-01-15T07:06:04;68.53;;;40.20;;
6392;SDS011;3229;42.674;23.282;2024-01-15T07:08:31;60.97;;;36.47;;
6392;SDS011;3229;42.674;23.282;2024-01-15T07:10:58;60.03;;;37.60;;
6392;SDS011;3229;42.674;23.282;2024-01-15T07:13:24;63.70;;;38.17;;
6392;SDS011;3229;42.674;23.282;2024-01-15T07:15:52;62.83;;;37.37;;
6392;SDS011;3229;42.674;23.282;2024-01-15T07:18:19;61.63;;;37.07;;
6392;SDS011;3229;42.674;23.282;2024-01-15T07:20:46;60.53;;;36.83;;
6392;SDS011;3229;42.674;23.282;2024-01-15T07:23:13;58.80;;;35.00;;
6392;SDS011;3229;42.674;23.282;2024-01-15T07:25:40;61.80;;;36.27;;
6392;SDS011;3229;42.674;23.282;2024-01-15T07:28:06;57.30;;;33.77;;
6392;SDS011;3229;42.674;23.282;2024-01-15T07:30:33;57.67;;;35.47;;
6392;SDS011;3229;42.674;23.282;2024-01-15T07:33:01;55.33;;;35.07;;
6392;SDS011;3229;42.674;23.282;2024-01-15T07:35:29;64.47;;;35.27;;
6392;SDS011;3229;42.674;23.282;2024-01-15T07:37:56;60.03;;;35.67;;
6392;SDS011;3229;42.674;23.282;2024-01-15T07:40:23;59.77;;;35.93;;
6392;SDS011;3229;42.674;23.282;2024-01-15T07:42:49;57.33;;;35.33;;
6392;SDS011;3229;42.674;23.282;2024-01-15T07:45:16;59.17;;;35.53;;
6392;SDS011;3229;42.674;23.282;2024-01-15T07:47:43;62.60;;;35.07;;
6392;SDS011;3229;42.674;23.282;2024-01-15T07:50:11;61.77;;;34.23;;
6392;SDS011;3229;42.674;23.282;2024-01-15T07:52:38;62.27;;;34.70;;
6392;SDS011;3229;42.674;23.282;2024-01-15T07:55:07;59.93;;;35.53;;
6392;SDS011;3229;42.674;23.282;2024-01-15T07:57:33;51.30;;;31.27;;
6392;SDS011;3229;42.674;23.282;2024-01-15T08:00:01;52.50;;;32.20;;
6392;SDS011;3229;42.674;23.282;2024-01-15T08:02:29;52.83;;;32.97;;
6392;SDS011;3229;42.674;23.282;2024-01-15T08:04:57;49.10;;;32.43;;
6392;SDS011;3229;42.674;23.282;2024-01-15T08:07:25;51.10;;;31.97;;
6392;SDS011;3229;42.674;23.282;2024-01-15T08:09:52;56.70;;;32.97;;
6392;SDS011;3229;42.674;23.282;2024-01-15T08:12:19;51.77;;;33.73;;
6392;SDS011;3229;42.674;23.282;2024-01-15T08:14:47;49.27;;;31.00;;
6392;SDS011;3229;42.674;23.282;2024-01-15T08:17:14;54.13;;;32.13;;
6392;SDS011;3229;42.674;23.282;2024-01-15T08:19:41;52.53;;;32.40;;
6392;SDS011;3229;42.674;23.282;2024-01-15T08:22:08;50.90;;;32.57;;
6392;SDS011;3229;42.674;23.282;2024-01-15T08:24:37;52.97;;;33.87;;
6392;SDS011;3229;42.674;23.282;2024-01-15T08:27:04;54.23;;;33.30;;
6392;SDS011;3229;42.674;23.282;2024-01-15T08:29:31;52.87;;;31.57;;
6392;SDS011;3229;42.674;23.282;2024-01-15T08:32:00;48.23;;;30.43;;
6392;SDS011;3229;42.674;23.282;2024-01-15T08:34:26;47.70;;;30.27;;
6392;SDS011;3229;42.674;23.282;2024-01-15T08:36:53;44.20;;;30.07;;
6392;SDS011;3229;42.674;23.282;2024-01-15T08:39:20;52.63;;;32.27;;
6392;SDS011;3229;42.674;23.282;2024-01-15T08:41:48;49.37;;;30.57;;
6392;SDS011;3229;42.674;23.282;2024-01-15T08:44:15;45.53;;;30.50;;
6392;SDS011;3229;42.674;23.282;2024-01-15T08:46:42;50.30;;;30.03;;
6392;SDS011;3229;42.674;23.282;2024-01-15T08:49:08;50.93;;;30.97;;
6392;SDS011;3229;42.674;23.282;2024-01-15T08:51:35;48.70;;;29.50;;
6392;SDS011;3229;42.674;23.282;2024-01-15T08:54:03;46.17;;;29.73;;
6392;SDS011;3229;42.674;23.282;2024-01-15T08:56:30;48.00;;;29.47;;
6392;SDS011;3229;42.674;23.282;2024-01-15T08:58:58;49.57;;;29.50;;
6392;SDS011;3229;42.674;23.282;2024-01-15T09:01:25;45.20;;;27.70;;
6392;SDS011;3229;42.674;23.282;2024-01-15T09:03:52;43.90;;;27.57;;
6392;SDS011;3229;42.674;23.282;2024-01-15T09:06:18;42.57;;;26.40;;
6392;SDS011;3229;42.674;23.282;2024-01-15T09:08:45;37.90;;;25.10;;
6392;SDS011;3229;42.674;23.282;2024-01-15T09:11:12;43.30;;;27.00;;
6392;SDS011;3229;42.674;23.282;2024-01-15T09:13:39;42.20;;;25.10;;
6392;SDS011;3229;42.674;23.282;2024-01-15T09:16:07;42.73;;;25.13;;
6392;SDS011;3229;42.674;23.282;2024-01-15T09:18:34;45.90;;;27.40;;
6392;SDS011;3229;42.674;23.282;2024-01-15T09:21:02;44.17;;;25.07;;
6392;SDS011;3229;42.674;23.282;2024-01-15T09:23:30;43.17;;;25.53;;
6392;SDS011;3229;42.674;23.282;2024-01-15T09:25:57;38.77;;;26.37;;
6392;SDS011;3229;42.674;23.282;2024-01-15T09:28:24;36.80;;;24.27;;
6392;SDS011;3229;42.674;23.282;2024-01-15T09:30:50;41.00;;;25.87;;
6392;SDS011;3229;42.674;23.282;2024-01-15T09:33:18;39.53;;;24.53;;
6392;SDS011;3229;42.674;23.282;2024-01-15T09:35:45;41.63;;;25.17;;
6392;SDS011;3229;42.674;23.282;2024-01-15T09:38:12;46.33;;;27.37;;
6392;SDS011;3229;42.674;23.282;2024-01-15T09:40:39;43.87;;;25.60;;
6392;SDS011;3229;42.674;23.282;2024-01-15T09:43:09;40.17;;;25.37;;
6392;SDS011;3229;42.674;23.282;2024-01-15T09:45:36;41.10;;;27.33;;
6392;SDS011;3229;42.674;23.282;2024-01-15T09:48:04;45.13;;;28.97;;
6392;SDS011;3229;42.674;23.282;2024-01-15T09:50:32;42.20;;;27.47;;
6392;SDS011;3229;42.674;23.282;2024-01-15T09:52:59;47.33;;;28.53;;
6392;SDS011;3229;42.674;23.282;2024-01-15T09:55:27;47.60;;;28.60;;
6392;SDS011;3229;42.674;23.282;2024-01-15T09:57:55;51.00;;;28.47;;
6392;SDS011;3229;42.674;23.282;2024-01-15T10:00:22;39.47;;;26.03;;
6392;SDS011;3229;42.674;23.282;2024-01-15T10:02:50;43.00;;;27.57;;
6392;SDS011;3229;42.674;23.282;2024-01-15T10:05:16;57.53;;;28.00;;
6392;SDS011;3229;42.674;23.282;2024-01-15T10:07:45;48.17;;;28.97;;
6392;SDS011;3229;42.674;23.282;2024-01-15T10:10:15;45.47;;;27.77;;
6392;SDS011;3229;42.674;23.282;2024-01-15T10:12:41;46.30;;;26.70;;
6392;SDS011;3229;42.674;23.282;2024-01-15T10:15:09;44.80;;;27.07;;
6392;SDS011;3229;42.674;23.282;2024-01-15T10:17:37;48.27;;;28.20;;
6392;SDS011;3229;42.674;23.282;2024-01-15T10:20:07;46.73;;;28.10;;
6392;SDS011;3229;42.674;23.282;2024-01-15T10:22:35;46.80;;;29.70;;
6392;SDS011;3229;42.674;23.282;2024-01-15T10:25:05;48.67;;;29.33;;
6392;SDS011;3229;42.674;23.282;2024-01-15T10:27:32;47.13;;;29.33;;
6392;SDS011;3229;42.674;23.282;2024-01-15T10:29:59;48.57;;;30.80;;
6392;SDS011;3229;42.674;23.282;2024-01-15T10:32:27;43.73;;;27.97;;
6392;SDS011;3229;42.674;23.282;2024-01-15T10:34:54;46.83;;;28.07;;
6392;SDS011;3229;42.674;23.282;2024-01-15T10:37:21;45.17;;;29.73;;
6392;SDS011;3229;42.674;23.282;2024-01-15T10:39:50;55.37;;;31.20;;
6392;SDS011;3229;42.674;23.282;2024-01-15T10:42:19;45.97;;;29.27;;
6392;SDS011;3229;42.674;23.282;2024-01-15T10:44:45;50.87;;;30.10;;
6392;SDS011;3229;42.674;23.282;2024-01-15T10:47:12;47.37;;;29.13;;
6392;SDS011;3229;42.674;23.282;2024-01-15T10:49:39;46.43;;;29.37;;
6392;SDS011;3229;42.674;23.282;2024-01-15T10:52:07;45.27;;;28.63;;
6392;SDS011;3229;42.674;23.282;2024-01-15T10:54:33;44.33;;;28.10;;
6392;SDS011;3229;42.674;23.282;2024-01-15T10:57:03;47.30;;;29.43;;
6392;SDS011;3229;42.674;23.282;2024-01-15T10:59:32;47.33;;;27.03;;
6392;SDS011;3229;42.674;23.282;2024-01-15T11:02:00;42.27;;;26.87;;
6392;SDS011;3229;42.674;23.282;2024-01-15T11:04:27;44.60;;;27.53;;
6392;SDS011;3229;42.674;23.282;2024-01-15T11:06:54;42.00;;;26.50;;
6392;SDS011;3229;42.674;23.282;2024-01-15T11:09:22;35.77;;;25.20;;
6392;SDS011;3229;42.674;23.282;2024-01-15T11:11:51;49.27;;;26.47;;
6392;SDS011;3229;42.674;23.282;2024-01-15T11:14:38;41.63;;;25.50;;
6392;SDS011;3229;42.674;23.282;2024-01-15T11:17:08;38.60;;;24.37;;
6392;SDS011;3229;42.674;23.282;2024-01-15T11:19:36;35.30;;;23.00;;
6392;SDS011;3229;42.674;23.282;2024-01-15T11:22:05;37.53;;;24.10;;
6392;SDS011;3229;42.674;23.282;2024-01-15T11:24:37;37.03;;;24.03;;
6392;SDS011;3229;42.674;23.282;2024-01-15T11:27:04;38.17;;;23.47;;
6392;SDS011;3229;42.674;23.282;2024-01-15T11:29:32;37.77;;;22.00;;
6392;SDS011;3229;42.674;23.282;2024-01-15T11:32:02;31.67;;;21.83;;
6392;SDS011;3229;42.674;23.282;2024-01-15T11:34:52;31.17;;;20.93;;
6392;SDS011;3229;42.674;23.282;2024-01-15T11:37:23;29.47;;;19.43;;
6392;SDS011;3229;42.674;23.282;2024-01-15T11:39:51;31.13;;;19.50;;
6392;SDS011;3229;42.674;23.282;2024-01-15T11:42:19;30.20;;;19.87;;
6392;SDS011;3229;42.674;23.282;2024-01-15T11:44:47;29.67;;;19.27;;
6392;SDS011;3229;42.674;23.282;2024-01-15T11:47:15;30.13;;;18.40;;
6392;SDS011;3229;42.674;23.282;2024-01-15T11:49:52;28.03;;;18.27;;
6392;SDS011;3229;42.674;23.282;2024-01-15T11:52:26;26.73;;;19.27;;
6392;SDS011;3229;42.674;23.282;2024-01-15T11:54:56;31.60;;;19.50;;
6392;SDS011;3229;42.674;23.282;2024-01-15T11:57:33;29.73;;;18.07;;
6392;SDS011;3229;42.674;23.282;2024-01-15T12:00:07;24.87;;;17.87;;
6392;SDS011;3229;42.674;23.282;2024-01-15T12:02:37;23.90;;;17.07;;
6392;SDS011;3229;42.674;23.282;2024-01-15T12:05:04;28.97;;;17.90;;
6392;SDS011;3229;42.674;23.282;2024-01-15T12:07:32;26.50;;;17.17;;
6392;SDS011;3229;42.674;23.282;2024-01-15T12:09:59;28.80;;;16.40;;
6392;SDS011;3229;42.674;23.282;2024-01-15T12:12:27;25.53;;;17.27;;
6392;SDS011;3229;42.674;23.282;2024-01-15T12:15:01;25.73;;;16.97;;
6392;SDS011;3229;42.674;23.282;2024-01-15T12:17:28;26.53;;;16.67;;
6392;SDS011;3229;42.674;23.282;2024-01-15T12:19:57;24.87;;;15.87;;
6392;SDS011;3229;42.674;23.282;2024-01-15T12:22:24;25.50;;;16.63;;
6392;SDS011;3229;42.674;23.282;2024-01-15T12:24:52;22.03;;;16.23;;
6392;SDS011;3229;42.674;23.282;2024-01-15T12:27:19;23.33;;;14.87;;
6392;SDS011;3229;42.674;23.282;2024-01-15T12:29:47;23.20;;;15.33;;
6392;SDS011;3229;42.674;23.282;2024-01-15T12:32:13;28.30;;;16.03;;
6392;SDS011;3229;42.674;23.282;2024-01-15T12:34:39;24.07;;;15.23;;
6392;SDS011;3229;42.674;23.282;2024-01-15T12:37:07;24.30;;;16.40;;
6392;SDS011;3229;42.674;23.282;2024-01-15T12:39:35;27.43;;;16.73;;
6392;SDS011;3229;42.674;23.282;2024-01-15T12:42:03;24.20;;;16.00;;
6392;SDS011;3229;42.674;23.282;2024-01-15T12:44:31;27.20;;;15.43;;
6392;SDS011;3229;42.674;23.282;2024-01-15T12:46:58;25.97;;;16.50;;
6392;SDS011;3229;42.674;23.282;2024-01-15T12:49:25;25.67;;;14.97;;
6392;SDS011;3229;42.674;23.282;2024-01-15T12:51:52;27.80;;;16.20;;
6392;SDS011;3229;42.674;23.282;2024-01-15T12:54:21;23.37;;;15.70;;
6392;SDS011;3229;42.674;23.282;2024-01-15T12:56:49;22.33;;;15.27;;
6392;SDS011;3229;42.674;23.282;2024-01-15T12:59:16;25.87;;;15.57;;
6392;SDS011;3229;42.674;23.282;2024-01-15T13:01:43;24.43;;;15.77;;
6392;SDS011;3229;42.674;23.282;2024-01-15T13:04:11;20.50;;;15.43;;
6392;SDS011;3229;42.674;23.282;2024-01-15T13:06:46;25.73;;;15.70;;
6392;SDS011;3229;42.674;23.282;2024-01-15T13:09:14;25.47;;;16.23;;
6392;SDS011;3229;42.674;23.282;2024-01-15T13:11:43;22.20;;;15.10;;
6392;SDS011;3229;42.674;23.282;2024-01-15T13:14:10;21.27;;;15.23;;
6392;SDS011;3229;42.674;23.282;2024-01-15T13:16:38;22.93;;;14.90;;
6392;SDS011;3229;42.674;23.282;2024-01-15T13:19:06;23.77;;;15.53;;
6392;SDS011;3229;42.674;23.282;2024-01-15T13:21:34;22.73;;;15.23;;
6392;SDS011;3229;42.674;23.282;2024-01-15T13:24:01;24.90;;;15.67;;
6392;SDS011;3229;42.674;23.282;2024-01-15T13:26:30;26.13;;;16.00;;
6392;SDS011;3229;42.674;23.282;2024-01-15T13:28:59;25.27;;;15.97;;
6392;SDS011;3229;42.674;23.282;2024-01-15T13:31:26;21.73;;;15.47;;
6392;SDS011;3229;42.674;23.282;2024-01-15T13:33:53;26.40;;;16.63;;
6392;SDS011;3229;42.674;23.282;2024-01-15T13:36:20;22.70;;;15.30;;
6392;SDS011;3229;42.674;23.282;2024-01-15T13:38:48;26.83;;;15.13;;
6392;SDS011;3229;42.674;23.282;2024-01-15T13:41:15;23.93;;;16.17;;
6392;SDS011;3229;42.674;23.282;2024-01-15T13:43:43;25.90;;;16.47;;
6392;SDS011;3229;42.674;23.282;2024-01-15T13:46:12;23.87;;;17.27;;
6392;SDS011;3229;42.674;23.282;2024-01-15T13:48:38;26.07;;;16.07;;
6392;SDS011;3229;42.674;23.282;2024-01-15T13:51:05;30.10;;;16.07;;
6392;SDS011;3229;42.674;23.282;2024-01-15T13:53:32;24.70;;;15.97;;
6392;SDS011;3229;42.674;23.282;2024-01-15T13:55:59;32.17;;;16.73;;
6392;SDS011;3229;42.674;23.282;2024-01-15T13:58:27;25.10;;;16.93;;
6392;SDS011;3229;42.674;23.282;2024-01-15T14:00:53;26.17;;;16.57;;
6392;SDS011;3229;42.674;23.282;2024-01-15T14:03:22;28.13;;;16.33;;
6392;SDS011;3229;42.674;23.282;2024-01-15T14:05:48;27.70;;;17.27;;
6392;SDS011;3229;42.674;23.282;2024-01-15T14:08:16;26.33;;;16.83;;
6392;SDS011;3229;42.674;23.282;2024-01-15T14:10:42;25.27;;;15.43;;
6392;SDS011;3229;42.674;23.282;2024-01-15T14:13:10;31.33;;;17.37;;
6392;SDS011;3229;42.674;23.282;2024-01-15T14:15:37;28.70;;;16.53;;
6392;SDS011;3229;42.674;23.282;2024-01-15T14:18:04;25.03;;;16.13;;
6392;SDS011;3229;42.674;23.282;2024-01-15T14:20:32;26.60;;;17.23;;
6392;SDS011;3229;42.674;23.282;2024-01-15T14:22:59;28.73;;;15.63;;
6392;SDS011;3229;42.674;23.282;2024-01-15T14:25:26;27.33;;;15.30;;
6392;SDS011;3229;42.674;23.282;2024-01-15T14:27:52;29.67;;;16.20;;
6392;SDS011;3229;42.674;23.282;2024-01-15T14:30:19;22.60;;;15.13;;
6392;SDS011;3229;42.674;23.282;2024-01-15T14:32:46;24.53;;;16.20;;
6392;SDS011;3229;42.674;23.282;2024-01-15T14:35:13;25.17;;;16.13;;